Time;durP1;ratioP1;P1;durP2;ratioP2;P2;SDS_P1;SDS_P2;PMS_P1;PMS_P2;Temp;Humidity;BMP_temperature;BMP_pressure;BME280_temperature;BME280_humidity;BME280_pressure;Samples;Min_cycle;Max_cycle;Signal;HPM_P1;HPM_P2
2022/03/19 00:01:50;;;;;;;;;8.25;7.25;;;;;10.26;39.55;102918.16;5066359;28;45854;-61
2022/03/19 00:04:16;;;;;;;;;9.50;5.25;;;;;10.20;38.63;102912.94;5061718;28;45309;-59
2022/03/19 00:06:45;;;;;;;;;6.25;5.00;;;;;10.19;38.70;102905.84;5054854;28;45383;-57
2022/03/19 00:09:11;;;;;;;;;7.50;5.00;;;;;10.20;39.29;102921.78;5072700;28;45333;-59
2022/03/19 00:11:36;;;;;;;;;5.00;5.00;;;;;10.26;39.81;102926.13;5053861;28;44830;-59
2022/03/19 00:14:03;;;;;;;;;5.75;5.75;;;;;10.12;39.49;102906.84;5041887;28;45412;-58
2022/03/19 00:16:28;;;;;;;;;3.00;3.00;;;;;10.19;39.40;102921.81;5053655;28;45495;-59
2022/03/19 00:18:54;;;;;;;;;4.50;4.50;;;;;10.18;39.26;102925.38;5057165;28;45327;-59
2022/03/19 00:21:19;;;;;;;;;5.75;4.00;;;;;10.12;39.06;102928.13;5023561;28;45408;-58
2022/03/19 00:23:46;;;;;;;;;4.00;4.00;;;;;10.09;39.76;102930.84;5057306;28;45481;-58
2022/03/19 00:26:12;;;;;;;;;5.25;5.25;;;;;10.08;39.42;102934.41;5051921;28;45485;-58
2022/03/19 00:28:40;;;;;;;;;3.75;3.00;;;;;9.99;39.21;102916.81;5058881;28;45320;-56
2022/03/19 00:31:05;;;;;;;;;6.00;6.00;;;;;10.02;39.27;102933.59;5079984;28;44816;-58
2022/03/19 00:33:31;;;;;;;;;6.25;2.50;;;;;9.98;39.48;102934.56;5082586;28;45770;-58
2022/03/19 00:35:56;;;;;;;;;5.50;3.50;;;;;9.98;38.97;102931.88;5081039;28;44792;-59
2022/03/19 00:38:21;;;;;;;;;5.50;5.00;;;;;9.99;40.09;102938.97;5078044;28;45625;-57
2022/03/19 00:40:47;;;;;;;;;5.00;5.00;;;;;9.95;39.67;102923.09;5075234;28;44880;-59
2022/03/19 00:43:13;;;;;;;;;4.00;4.00;;;;;9.95;38.98;102929.28;5057446;28;45502;-57
2022/03/19 00:45:39;;;;;;;;;4.50;2.00;;;;;9.74;39.32;102895.94;5038662;28;45657;-59
2022/03/19 00:48:05;;;;;;;;;5.75;5.00;;;;;9.91;39.76;102930.25;5038694;28;45442;-58
2022/03/19 00:50:30;;;;;;;;;7.00;3.50;;;;;9.84;40.00;102911.75;5057533;28;45244;-58
2022/03/19 00:52:55;;;;;;;;;4.50;4.50;;;;;9.87;39.86;102925.00;5055947;28;46121;-56
2022/03/19 00:55:21;;;;;;;;;6.00;6.00;;;;;9.85;39.74;102919.69;5066404;28;45233;-59
2022/03/19 00:57:48;;;;;;;;;6.50;5.25;;;;;9.80;39.84;102907.41;5066624;28;45383;-58
2022/03/19 01:00:17;;;;;;;;;1.50;1.00;;;;;9.83;39.36;102915.31;5053703;28;45325;-61
2022/03/19 01:02:44;;;;;;;;;7.25;2.50;;;;;9.76;39.18;102919.84;5039340;28;46155;-57
2022/03/19 01:05:11;;;;;;;;;5.00;2.00;;;;;9.74;39.67;102916.34;5059934;28;45367;-61
2022/03/19 01:07:41;;;;;;;;;7.75;5.00;;;;;9.74;40.31;102911.00;5060030;28;45425;-59
2022/03/19 01:10:08;;;;;;;;;3.00;3.00;;;;;9.73;39.10;102917.22;5058405;28;45532;-56
2022/03/19 01:12:33;;;;;;;;;5.25;2.00;;;;;9.70;39.27;102904.88;5060026;28;46559;-57
2022/03/19 01:14:58;;;;;;;;;4.00;3.00;;;;;9.69;40.32;102910.22;5057242;28;45276;-56
2022/03/19 01:17:24;;;;;;;;;2.75;2.75;;;;;9.60;39.44;102903.25;5063314;28;44721;-59
2022/03/19 01:19:58;;;;;;;;;2.25;2.25;;;;;9.59;39.39;102900.63;5069939;28;45341;-58
2022/03/19 01:22:24;;;;;;;;;2.50;2.50;;;;;9.58;39.27;102906.84;5044630;28;47152;-57
2022/03/19 01:24:50;;;;;;;;;2.25;2.00;;;;;9.50;40.04;102895.44;5039566;28;45490;-57
2022/03/19 01:27:16;;;;;;;;;5.25;2.25;;;;;9.52;39.42;102909.59;5054048;28;45488;-58
2022/03/19 01:29:41;;;;;;;;;2.75;2.75;;;;;9.48;40.10;102899.91;5046201;28;45599;-58
2022/03/19 01:32:07;;;;;;;;;4.50;3.00;;;;;9.46;40.28;102900.81;5041732;28;45690;-58
2022/03/19 01:34:33;;;;;;;;;6.25;4.50;;;;;9.46;39.85;102895.50;5065600;28;45433;-64
2022/03/19 01:36:58;;;;;;;;;2.50;2.50;;;;;9.49;40.55;102896.34;5070386;28;45419;-59
2022/03/19 01:39:23;;;;;;;;;4.50;2.50;;;;;9.46;39.98;102887.53;5057044;28;45726;-57
2022/03/19 01:41:49;;;;;;;;;2.50;2.50;;;;;9.43;39.96;102895.56;5054825;28;48211;-59
2022/03/19 01:44:22;;;;;;;;;3.00;3.00;;;;;9.41;39.78;102894.69;5061116;28;45288;-58
2022/03/19 01:47:16;;;;;;;;;3.00;3.00;;;;;9.24;39.79;102863.94;5060416;28;45709;-57
2022/03/19 01:49:41;;;;;;;;;2.75;2.75;;;;;9.28;39.89;102874.53;5027260;28;45261;-58
2022/03/19 01:52:07;;;;;;;;;8.00;1.00;;;;;9.33;40.42;102885.94;5047310;28;47248;-56
2022/03/19 01:54:36;;;;;;;;;1.75;1.75;;;;;9.27;40.15;102883.41;5066359;28;45305;-57
2022/03/19 01:57:02;;;;;;;;;2.00;2.00;;;;;9.31;39.61;102890.41;5051005;28;45406;-61
2022/03/19 01:59:32;;;;;;;;;6.25;4.50;;;;;9.22;39.87;102873.72;5054469;28;44934;-59
2022/03/19 02:01:59;;;;;;;;;1.50;1.50;;;;;9.17;40.34;102865.84;5036105;28;45310;-55
2022/03/19 02:04:24;;;;;;;;;2.75;2.00;;;;;9.26;39.90;102880.78;5049122;28;45295;-59
2022/03/19 02:06:50;;;;;;;;;2.00;2.00;;;;;9.22;40.20;102873.72;5061517;28;45470;-62
2022/03/19 02:09:15;;;;;;;;;5.00;4.50;;;;;9.22;40.63;102876.38;5060067;28;44877;-57
2022/03/19 02:11:41;;;;;;;;;6.50;5.00;;;;;9.15;40.42;102872.94;5061597;28;46080;-57
2022/03/19 02:14:07;;;;;;;;;3.00;2.00;;;;;9.13;40.52;102874.75;5060394;28;45315;-56
2022/03/19 02:16:33;;;;;;;;;2.00;2.00;;;;;9.01;40.81;102861.66;5073192;28;45387;-57
2022/03/19 02:19:01;;;;;;;;;3.50;3.50;;;;;8.99;39.79;102863.44;5071408;28;45380;-58
2022/03/19 02:21:38;;;;;;;;;2.50;2.50;;;;;9.01;40.52;102865.19;5061657;28;46716;-57
2022/03/19 02:26:48;;;;;;;;;4.25;2.00;;;;;8.99;40.70;102866.09;5073091;28;45282;-60
2022/03/19 02:29:13;;;;;;;;;3.75;3.00;;;;;8.93;40.79;102850.25;5068589;28;45221;-58
2022/03/19 02:31:40;;;;;;;;;2.25;2.25;;;;;8.84;40.18;102840.63;5067188;28;45478;-59
2022/03/19 02:34:08;;;;;;;;;2.75;2.75;;;;;8.92;40.73;102846.72;5074180;28;45544;-57
2022/03/19 02:36:40;;;;;;;;;9.00;5.00;;;;;8.90;40.80;102842.31;5071374;28;45725;-57
2022/03/19 02:39:18;;;;;;;;;3.00;1.25;;;;;8.82;40.69;102837.97;5066823;28;45596;-57
2022/03/19 02:41:45;;;;;;;;;3.75;2.25;;;;;8.79;41.15;102843.34;5047233;28;46004;-58
2022/03/19 02:44:12;;;;;;;;;4.25;3.00;;;;;8.79;40.76;102843.34;5060339;28;45366;-56
2022/03/19 02:46:49;;;;;;;;;3.00;3.00;;;;;8.80;41.62;102844.22;5072538;28;45271;-57
2022/03/19 02:49:16;;;;;;;;;5.75;3.00;;;;;8.75;41.21;102841.63;5060130;28;44865;-59
2022/03/19 02:51:43;;;;;;;;;5.75;4.00;;;;;8.73;41.00;102848.72;5049042;28;45590;-57
2022/03/19 02:54:10;;;;;;;;;6.75;5.25;;;;;8.68;41.67;102837.28;5046097;28;46763;-58
2022/03/19 02:56:40;;;;;;;;;4.50;4.50;;;;;8.61;41.13;102824.13;5042059;28;45324;-59
2022/03/19 02:59:13;;;;;;;;;4.00;4.00;;;;;8.67;41.21;102838.19;5039299;28;45554;-59
2022/03/19 03:01:41;;;;;;;;;8.00;5.75;;;;;8.57;41.68;102828.56;5023820;28;46583;-56
2022/03/19 03:04:07;;;;;;;;;4.50;4.50;;;;;8.61;41.93;102832.97;5046485;28;45873;-58
2022/03/19 03:06:44;;;;;;;;;6.25;5.00;;;;;8.65;42.10;102839.09;5020360;28;45399;-57
2022/03/19 03:09:10;;;;;;;;;10.75;7.00;;;;;8.58;41.68;102831.19;5047163;28;45399;-59
2022/03/19 03:11:37;;;;;;;;;6.25;5.00;;;;;8.57;41.69;102839.19;5058949;28;45366;-57
2022/03/19 03:14:03;;;;;;;;;6.50;5.50;;;;;8.55;41.96;102831.25;5062020;28;45434;-58
2022/03/19 03:16:29;;;;;;;;;7.00;4.00;;;;;8.52;41.67;102835.72;5044997;28;45468;-58
2022/03/19 03:19:00;;;;;;;;;2.50;2.50;;;;;8.50;42.23;102829.56;5061255;28;45333;-57
2022/03/19 03:21:27;;;;;;;;;8.00;6.00;;;;;8.51;42.44;102836.63;5055542;28;46053;-58
2022/03/19 03:23:54;;;;;;;;;5.50;3.25;;;;;8.53;42.03;102834.81;5057436;28;45332;-59
2022/03/19 03:26:19;;;;;;;;;2.00;2.00;;;;;8.47;42.19;102824.31;5046125;28;45475;-60
2022/03/19 03:28:45;;;;;;;;;3.25;3.25;;;;;8.39;41.84;102803.16;5039867;28;45582;-58
2022/03/19 03:31:10;;;;;;;;;6.25;4.75;;;;;8.53;42.01;102827.75;5045171;28;46027;-59
2022/03/19 03:33:37;;;;;;;;;3.75;3.50;;;;;8.47;42.68;102819.00;5051489;28;45592;-58
2022/03/19 03:36:02;;;;;;;;;7.25;5.25;;;;;8.35;42.43;102803.22;5053004;28;45374;-58
2022/03/19 03:38:28;;;;;;;;;5.00;5.00;;;;;8.31;42.74;102786.41;5063067;28;44811;-58
2022/03/19 03:40:53;;;;;;;;;9.75;6.00;;;;;8.31;42.19;102785.53;5067743;28;46040;-58
2022/03/19 03:43:19;;;;;;;;;9.00;6.25;;;;;8.35;42.83;102797.94;5055572;28;45755;-61
2022/03/19 03:45:44;;;;;;;;;6.50;5.25;;;;;8.28;42.54;102791.75;5058876;28;45753;-62
2022/03/19 03:48:10;;;;;;;;;7.50;7.50;;;;;8.31;42.80;102804.09;5074554;28;44869;-58
2022/03/19 03:50:39;;;;;;;;;7.00;6.75;;;;;8.32;42.97;102808.50;5073218;28;45370;-59
2022/03/19 03:53:06;;;;;;;;;5.75;4.75;;;;;8.19;43.44;102782.13;5069616;28;45297;-58
2022/03/19 03:55:33;;;;;;;;;10.00;6.50;;;;;8.28;43.18;102800.59;5058108;28;45509;-63
2022/03/19 03:58:00;;;;;;;;;9.50;9.00;;;;;8.21;43.16;102796.28;5050889;28;45379;-60
2022/03/19 04:00:26;;;;;;;;;9.75;9.00;;;;;8.14;43.65;102783.97;5049605;28;45501;-59
2022/03/19 04:02:51;;;;;;;;;10.00;9.00;;;;;8.18;43.41;102806.88;5060040;28;45375;-61
2022/03/19 04:05:18;;;;;;;;;10.75;7.50;;;;;8.18;43.66;102804.22;5061008;28;45347;-57
2022/03/19 04:07:43;;;;;;;;;5.25;5.25;;;;;8.15;43.93;102796.31;5060094;28;45586;-57
2022/03/19 04:10:09;;;;;;;;;9.25;7.25;;;;;8.14;43.64;102805.19;5059495;28;45220;-55
2022/03/19 04:12:36;;;;;;;;;8.00;8.00;;;;;8.17;44.07;102804.25;5058920;28;45489;-59
2022/03/19 04:15:01;;;;;;;;;16.00;9.75;;;;;8.12;43.87;102799.03;5047632;28;45347;-57
2022/03/19 04:17:27;;;;;;;;;11.00;10.00;;;;;8.12;44.11;102799.03;5026696;28;45583;-59
2022/03/19 04:19:52;;;;;;;;;12.00;8.00;;;;;8.08;44.30;102789.34;5032115;28;46433;-58
2022/03/19 04:22:20;;;;;;;;;9.00;9.00;;;;;8.17;44.82;102806.91;5056854;28;45251;-58
2022/03/19 04:24:46;;;;;;;;;12.00;10.25;;;;;8.13;44.77;102803.41;5055058;28;45387;-56
2022/03/19 04:27:14;;;;;;;;;13.00;13.00;;;;;8.14;44.58;102805.19;5052576;28;45521;-57
2022/03/19 04:29:39;;;;;;;;;13.50;10.50;;;;;8.14;44.48;102807.81;5019682;28;47242;-55
2022/03/19 04:32:05;;;;;;;;;12.75;10.50;;;;;8.13;44.65;102803.41;5038115;28;45279;-57
2022/03/19 04:34:31;;;;;;;;;14.75;14.25;;;;;8.15;44.58;102812.22;5036709;28;45321;-57
2022/03/19 04:36:56;;;;;;;;;10.00;10.00;;;;;8.11;45.36;102810.50;5057532;28;45586;-58
2022/03/19 04:39:22;;;;;;;;;16.50;13.50;;;;;8.09;45.03;102807.00;5049719;28;45431;-57
2022/03/19 04:41:47;;;;;;;;;10.00;9.00;;;;;8.04;45.73;102805.28;5066339;28;45543;-58
2022/03/19 04:44:13;;;;;;;;;17.75;13.00;;;;;8.09;45.30;102807.00;5048422;28;45239;-58
2022/03/19 04:46:38;;;;;;;;;21.50;10.50;;;;;8.10;45.26;102794.63;5057460;28;45621;-58
2022/03/19 04:49:04;;;;;;;;;20.50;16.50;;;;;8.12;45.47;102806.97;5054322;28;45367;-59
2022/03/19 04:51:39;;;;;;;;;13.75;11.25;;;;;7.67;45.82;102732.34;5060018;28;45376;-56
2022/03/19 04:54:05;;;;;;;;;17.50;13.50;;;;;8.12;45.94;102803.44;5056201;28;45600;-58
2022/03/19 04:56:31;;;;;;;;;14.50;14.50;;;;;8.05;46.30;102799.97;5059314;28;44929;-58
2022/03/19 04:58:58;;;;;;;;;15.75;14.00;;;;;8.07;46.24;102803.47;5067051;28;45232;-57
2022/03/19 05:01:28;;;;;;;;;18.75;13.00;;;;;8.01;46.08;102787.66;5063533;28;45283;-58
2022/03/19 05:03:53;;;;;;;;;16.00;13.75;;;;;7.98;46.67;102798.28;5062581;28;45465;-59
2022/03/19 05:06:19;;;;;;;;;14.00;13.50;;;;;7.91;46.77;102796.56;5054722;28;45480;-56
2022/03/19 05:08:45;;;;;;;;;15.75;13.25;;;;;7.94;46.70;102791.25;5044638;28;45481;-57
2022/03/19 05:11:13;;;;;;;;;20.25;15.25;;;;;7.96;46.79;102789.47;5058773;28;45782;-58
2022/03/19 05:13:40;;;;;;;;;16.50;15.25;;;;;7.98;46.74;102798.28;5063237;28;45655;-58
2022/03/19 05:16:05;;;;;;;;;17.00;17.00;;;;;7.97;47.28;102804.47;5071382;28;45684;-59
2022/03/19 05:18:31;;;;;;;;;21.50;18.00;;;;;7.96;47.96;102800.06;5065362;28;45492;-58
2022/03/19 05:20:56;;;;;;;;;19.25;16.25;;;;;7.96;47.50;102806.25;5066799;28;45394;-58
2022/03/19 05:23:23;;;;;;;;;20.75;15.00;;;;;7.91;47.42;102802.75;5060343;28;45303;-58
2022/03/19 05:25:49;;;;;;;;;26.00;20.50;;;;;7.92;47.71;102801.84;5028919;28;45479;-60
2022/03/19 05:28:15;;;;;;;;;28.00;20.50;;;;;7.88;47.83;102801.91;5062340;28;46328;-58
2022/03/19 05:30:40;;;;;;;;;18.00;16.00;;;;;7.83;48.34;102794.03;5066373;28;44805;-59
2022/03/19 05:33:06;;;;;;;;;20.50;18.75;;;;;7.86;48.67;102801.06;5067614;28;45406;-58
2022/03/19 05:35:32;;;;;;;;;23.00;18.50;;;;;7.81;48.56;102798.47;5048352;28;45505;-58
2022/03/19 05:37:59;;;;;;;;;29.25;22.00;;;;;7.78;48.50;102795.81;5043686;28;47147;-59
2022/03/19 05:40:25;;;;;;;;;23.50;21.75;;;;;7.80;48.70;102803.75;5059430;28;45439;-58
2022/03/19 05:42:51;;;;;;;;;26.75;24.50;;;;;7.81;48.70;102800.19;5065680;28;45485;-59
2022/03/19 05:45:19;;;;;;;;;27.00;23.50;;;;;7.82;48.86;102807.28;5045681;28;45370;-59
2022/03/19 05:47:45;;;;;;;;;30.25;23.25;;;;;7.66;48.88;102775.63;5047198;28;47169;-60
2022/03/19 05:50:11;;;;;;;;;29.00;22.00;;;;;7.81;49.40;102806.41;5062390;28;45459;-57
2022/03/19 05:52:37;;;;;;;;;24.50;22.25;;;;;7.80;49.29;102807.28;5064500;28;45328;-58
2022/03/19 05:55:03;;;;;;;;;30.50;23.00;;;;;7.72;49.64;102790.59;5045900;28;45617;-58
2022/03/19 05:57:28;;;;;;;;;30.25;23.75;;;;;7.68;49.91;102786.19;5040215;28;47089;-58
2022/03/19 05:59:54;;;;;;;;;34.50;23.00;;;;;7.63;49.51;102794.19;5052333;28;45178;-57
2022/03/19 06:02:19;;;;;;;;;20.50;18.25;;;;;7.55;49.85;102771.31;5034763;28;45400;-58
2022/03/19 06:04:45;;;;;;;;;34.75;21.75;;;;;7.55;50.24;102773.94;5062850;28;45371;-58
2022/03/19 06:07:10;;;;;;;;;34.50;22.00;;;;;7.70;49.94;102802.97;5065211;28;45374;-59
2022/03/19 06:09:36;;;;;;;;;25.00;23.25;;;;;7.69;50.59;102807.41;5056210;28;45279;-57
2022/03/19 06:12:01;;;;;;;;;30.00;24.25;;;;;7.53;50.71;102784.56;5031985;28;45421;-57
2022/03/19 06:14:26;;;;;;;;;30.25;24.25;;;;;7.57;50.84;102786.31;5063499;28;45768;-58
2022/03/19 06:16:52;;;;;;;;;35.75;27.50;;;;;7.60;51.32;102799.50;5065449;28;45434;-58
2022/03/19 06:19:18;;;;;;;;;30.25;26.00;;;;;7.55;51.31;102788.09;5052170;28;45394;-57
2022/03/19 06:21:44;;;;;;;;;32.50;29.50;;;;;7.61;50.61;102809.22;5062915;28;45498;-57
2022/03/19 06:24:10;;;;;;;;;38.00;28.75;;;;;7.56;51.46;102792.50;5060516;28;45484;-58
2022/03/19 06:26:36;;;;;;;;;35.75;24.50;;;;;7.63;51.77;102799.47;5046977;28;46119;-61
2022/03/19 06:29:02;;;;;;;;;35.75;30.00;;;;;7.62;51.54;102804.78;5043881;28;45489;-59
2022/03/19 06:31:28;;;;;;;;;36.75;30.00;;;;;7.59;51.77;102795.13;5064045;28;45225;-58
2022/03/19 06:33:54;;;;;;;;;41.75;33.25;;;;;7.65;51.81;102808.28;5047710;28;45627;-56
2022/03/19 06:39:05;;;;;;;;;36.75;33.00;;;;;7.55;52.19;102789.84;5065771;28;45237;-58
2022/03/19 06:41:31;;;;;;;;;36.75;31.75;;;;;7.56;52.25;102784.56;5069806;28;44785;-61
2022/03/19 06:43:56;;;;;;;;;35.75;32.75;;;;;7.54;52.46;102796.91;5070891;28;45609;-58
2022/03/19 06:46:22;;;;;;;;;44.50;36.50;;;;;7.66;52.42;102807.41;5066223;28;45720;-58
2022/03/19 06:48:49;;;;;;;;;37.50;30.50;;;;;7.57;52.99;102794.25;5061952;28;45287;-58
2022/03/19 06:51:17;;;;;;;;;47.50;37.75;;;;;7.65;52.29;102807.41;5046401;28;45470;-61
2022/03/19 06:53:42;;;;;;;;;41.75;37.00;;;;;7.71;52.45;102819.75;5058154;28;45247;-58
2022/03/19 06:56:08;;;;;;;;;38.75;31.50;;;;;7.78;52.40;102806.41;5058595;28;46290;-58
2022/03/19 06:58:33;;;;;;;;;37.75;30.75;;;;;7.78;52.87;102805.53;5048526;28;45426;-59
2022/03/19 07:01:01;;;;;;;;;44.50;40.00;;;;;7.78;53.08;102809.06;5071530;28;45195;-61
2022/03/19 07:03:26;;;;;;;;;49.50;38.25;;;;;7.80;52.63;102794.03;5064221;28;45371;-58
2022/03/19 07:05:52;;;;;;;;;44.00;41.25;;;;;7.89;52.55;102811.63;5048660;28;45381;-58
2022/03/19 07:08:17;;;;;;;;;49.00;38.75;;;;;7.84;52.83;102798.41;5034452;28;45178;-59
2022/03/19 07:10:43;;;;;;;;;52.75;41.75;;;;;7.95;52.51;102806.28;5058549;28;45486;-58
2022/03/19 07:13:08;;;;;;;;;44.25;39.75;;;;;7.99;52.90;102800.03;5067251;28;45748;-59
2022/03/19 07:15:34;;;;;;;;;43.75;40.00;;;;;8.01;52.51;102811.50;5058794;28;45386;-59
2022/03/19 07:18:01;;;;;;;;;47.25;40.75;;;;;8.00;53.06;102801.78;5074326;28;45290;-59
2022/03/19 07:20:26;;;;;;;;;51.75;40.50;;;;;8.07;52.77;102808.75;5040241;28;44818;-59
2022/03/19 07:23:03;;;;;;;;;57.25;43.00;;;;;8.07;53.08;102803.47;5061039;28;44849;-58
2022/03/19 07:25:34;;;;;;;;;51.50;44.25;;;;;8.17;52.37;102805.13;5047437;28;45949;-59
2022/03/19 07:28:02;;;;;;;;;57.75;41.00;;;;;8.20;52.83;102807.78;5071618;28;45331;-60
2022/03/19 07:30:27;;;;;;;;;45.75;39.25;;;;;8.21;52.77;102804.22;5078672;28;44860;-59
2022/03/19 07:32:53;;;;;;;;;48.25;41.50;;;;;8.27;53.01;102806.78;5071881;28;45460;-59
2022/03/19 07:35:19;;;;;;;;;60.00;44.75;;;;;8.31;52.86;102806.75;5048035;28;46121;-59
2022/03/19 07:37:45;;;;;;;;;52.00;43.50;;;;;8.31;52.74;102790.84;5057511;28;45698;-58
2022/03/19 07:41:45;;;;;;;;;57.00;41.25;;;;;8.46;52.17;102806.59;5062444;28;45232;-58
2022/03/19 07:43:05;;;;;;;;;48.00;42.75;;;;;8.47;52.95;102805.75;5058648;28;45545;-60
2022/03/19 07:45:31;;;;;;;;;48.25;43.50;;;;;8.48;53.22;102802.19;5059087;28;46307;-58
2022/03/19 07:47:56;;;;;;;;;59.75;39.50;;;;;8.53;52.59;102801.22;5070992;28;45165;-58
2022/03/19 07:50:22;;;;;;;;;61.75;43.25;;;;;8.56;52.78;102798.53;5068421;28;45406;-62
2022/03/19 07:52:48;;;;;;;;;63.75;44.00;;;;;8.61;52.24;102795.84;5059378;28;45324;-57
2022/03/19 07:55:13;;;;;;;;;64.00;49.50;;;;;8.65;53.29;102801.97;5036148;28;47606;-59
2022/03/19 07:57:39;;;;;;;;;60.00;47.50;;;;;8.69;52.68;102815.16;5050698;28;45415;-57
2022/03/19 08:00:05;;;;;;;;;57.25;44.25;;;;;8.67;52.78;102792.22;5044455;28;44829;-58
2022/03/19 08:02:30;;;;;;;;;59.25;45.75;;;;;8.76;52.82;102800.94;5063911;28;45718;-58
2022/03/19 08:04:56;;;;;;;;;59.75;47.00;;;;;8.82;53.34;102795.53;5065249;28;45798;-57
2022/03/19 08:07:22;;;;;;;;;64.00;49.50;;;;;8.90;52.54;102797.22;5045703;28;45379;-57
2022/03/19 08:09:47;;;;;;;;;50.50;43.50;;;;;8.95;52.36;102811.28;5060867;28;45505;-58
2022/03/19 08:12:13;;;;;;;;;60.25;47.00;;;;;8.99;52.33;102794.44;5059710;28;45328;-59
2022/03/19 08:14:39;;;;;;;;;60.25;46.75;;;;;8.98;52.94;102782.91;5069764;28;45354;-58
2022/03/19 08:17:05;;;;;;;;;62.75;48.00;;;;;9.08;51.85;102794.28;5060355;28;45307;-61
2022/03/19 08:19:31;;;;;;;;;61.50;46.50;;;;;9.15;52.04;102790.66;5065259;28;45181;-60
2022/03/19 08:21:56;;;;;;;;;64.50;48.25;;;;;9.15;51.61;102777.38;5045522;28;45546;-63
2022/03/19 08:24:25;;;;;;;;;64.75;47.75;;;;;9.28;52.14;102794.00;5062545;28;46055;-58
2022/03/19 08:26:52;;;;;;;;;64.75;51.25;;;;;9.28;52.27;102770.97;5067186;28;45357;-59
2022/03/19 08:29:18;;;;;;;;;65.00;50.25;;;;;9.35;51.73;102780.56;5060767;28;45158;-63
2022/03/19 08:31:43;;;;;;;;;64.25;52.50;;;;;9.38;51.94;102785.88;5054902;28;45529;-58
2022/03/19 08:34:08;;;;;;;;;65.25;49.00;;;;;9.44;52.15;102777.78;5047013;28;46430;-58
2022/03/19 08:36:34;;;;;;;;;66.25;50.00;;;;;9.50;52.40;102776.78;5047175;28;45172;-57
2022/03/19 08:41:43;;;;;;;;;64.50;46.75;;;;;9.56;51.96;102758.13;5059310;28;45496;-60
2022/03/19 08:44:09;;;;;;;;;65.50;50.75;;;;;9.67;51.80;102776.53;5049850;28;45875;-62
2022/03/19 08:46:35;;;;;;;;;64.25;48.75;;;;;9.67;51.35;102755.28;5043983;28;45750;-61
2022/03/19 08:49:01;;;;;;;;;66.25;48.50;;;;;9.83;50.94;102774.47;5064151;28;45173;-59
2022/03/19 08:51:41;;;;;;;;;72.75;52.00;;;;;9.92;51.46;102771.66;5047657;28;45551;-61
2022/03/19 08:54:09;;;;;;;;;67.75;51.00;;;;;10.07;50.95;102767.81;5045367;28;45368;-62
2022/03/19 08:56:36;;;;;;;;;61.25;52.50;;;;;10.11;49.74;102745.56;5040525;28;45754;-60
2022/03/19 08:59:03;;;;;;;;;66.00;53.75;;;;;10.30;49.50;102774.47;5051261;28;45440;-63
2022/03/19 09:01:28;;;;;;;;;64.75;49.25;;;;;10.43;50.08;102748.50;5062849;28;45696;-57
2022/03/19 09:03:54;;;;;;;;;67.50;52.50;;;;;10.51;49.09;102741.22;5054749;28;46051;-59
2022/03/19 09:06:19;;;;;;;;;60.75;51.25;;;;;10.83;49.58;102752.94;5063023;28;44796;-64
2022/03/19 09:08:46;;;;;;;;;69.25;56.00;;;;;10.99;47.92;102759.66;5047093;28;44902;-59
2022/03/19 09:11:13;;;;;;;;;60.50;47.50;;;;;11.23;47.96;102753.75;5063188;28;45396;-57
2022/03/19 09:13:39;;;;;;;;;61.75;47.25;;;;;11.45;47.06;102754.09;5063863;28;45504;-58
2022/03/19 09:16:06;;;;;;;;;61.75;47.25;;;;;11.66;46.73;102751.78;5060107;28;45707;-56
2022/03/19 09:18:32;;;;;;;;;65.75;50.75;;;;;11.91;46.99;102760.91;5063109;28;45220;-56
2022/03/19 09:20:58;;;;;;;;;61.25;50.25;;;;;12.06;45.54;102748.97;5045677;28;45405;-58
2022/03/19 09:23:24;;;;;;;;;65.50;51.25;;;;;12.23;45.02;102749.34;5061112;28;45352;-59
2022/03/19 09:25:50;;;;;;;;;62.25;48.00;;;;;12.49;44.39;102750.38;5059607;28;45371;-59
2022/03/19 09:28:16;;;;;;;;;57.75;43.00;;;;;12.66;44.13;102740.09;5069862;28;45578;-61
2022/03/19 09:30:41;;;;;;;;;64.50;49.25;;;;;12.83;43.97;102740.44;5051869;28;45586;-60
2022/03/19 09:33:07;;;;;;;;;55.50;45.00;;;;;13.04;43.45;102736.22;5069053;28;46439;-61
2022/03/19 09:35:33;;;;;;;;;65.00;49.75;;;;;13.16;42.28;102717.13;5060368;28;45334;-62
2022/03/19 09:37:58;;;;;;;;;56.00;46.50;;;;;13.37;41.42;102718.22;5058494;28;45214;-58
2022/03/19 09:40:24;;;;;;;;;62.25;48.25;;;;;13.61;41.05;102742.38;5059504;28;45654;-58
2022/03/19 09:42:51;;;;;;;;;60.25;48.50;;;;;13.71;40.52;102722.41;5060568;28;45594;-61
2022/03/19 09:45:18;;;;;;;;;62.25;47.25;;;;;13.66;39.97;102713.66;5050931;28;45428;-59
2022/03/19 09:47:44;;;;;;;;;57.25;48.00;;;;;13.74;40.17;102715.13;5060632;28;46994;-59
2022/03/19 09:50:10;;;;;;;;;57.75;48.00;;;;;13.87;40.20;102721.78;5037034;28;45587;-60
2022/03/19 09:52:36;;;;;;;;;62.00;51.00;;;;;14.00;40.04;102722.22;5021482;28;48374;-60
2022/03/19 09:55:05;;;;;;;;;68.75;52.00;;;;;14.00;39.01;102708.84;5025102;28;45328;-59
2022/03/19 09:57:31;;;;;;;;;64.75;49.00;;;;;13.99;38.86;102709.78;5041533;28;45529;-61
2022/03/19 09:59:57;;;;;;;;;62.25;50.00;;;;;14.05;39.64;102719.38;5060956;28;45564;-59
2022/03/19 10:02:23;;;;;;;;;64.25;49.25;;;;;14.02;38.79;102704.31;5046111;28;45473;-60
2022/03/19 10:04:52;;;;;;;;;55.25;42.25;;;;;13.97;38.59;102702.75;5061621;28;45383;-59
2022/03/19 10:10:09;;;;;;;;;63.00;48.25;;;;;13.94;38.73;102698.38;5061768;28;45256;-58
2022/03/19 10:12:36;;;;;;;;;62.00;48.25;;;;;13.91;38.26;102698.47;5057830;28;45493;-60
2022/03/19 10:15:09;;;;;;;;;59.50;45.25;;;;;13.86;38.73;102703.13;5060054;28;45398;-60
2022/03/19 10:17:36;;;;;;;;;59.00;47.00;;;;;13.91;38.61;102706.50;5063897;28;45489;-60
2022/03/19 10:20:10;;;;;;;;;61.50;49.25;;;;;13.97;38.81;102694.72;5062064;28;44944;-57
2022/03/19 10:22:42;;;;;;;;;58.00;46.75;;;;;13.99;38.50;102693.72;5066041;28;45391;-60
2022/03/19 10:25:09;;;;;;;;;57.00;44.75;;;;;13.83;38.10;102671.16;5061373;28;45433;-61
2022/03/19 10:27:36;;;;;;;;;57.75;44.00;;;;;13.95;37.98;102680.53;5059860;28;45502;-58
2022/03/19 10:30:24;;;;;;;;;53.00;42.00;;;;;14.03;38.13;102681.97;5051337;28;45506;-58
2022/03/19 10:32:55;;;;;;;;;56.75;44.25;;;;;14.11;37.66;102682.56;5054142;28;45425;-60
2022/03/19 10:35:35;;;;;;;;;57.50;44.00;;;;;14.11;37.37;102673.69;5050851;28;45580;-65
2022/03/19 10:38:16;;;;;;;;;59.00;46.50;;;;;14.14;37.21;102674.41;5055916;28;46021;-63
2022/03/19 10:40:44;;;;;;;;;63.25;47.75;;;;;14.23;37.57;102675.00;5061876;28;45310;-61
2022/03/19 10:43:11;;;;;;;;;61.75;46.00;;;;;14.27;35.97;102661.44;5056134;28;45199;-63
2022/03/19 10:45:48;;;;;;;;;62.25;47.50;;;;;14.35;37.10;102662.03;5058550;28;45458;-61
2022/03/19 10:48:21;;;;;;;;;58.50;47.50;;;;;14.46;36.49;102661.66;5053272;28;45556;-59
2022/03/19 10:50:48;;;;;;;;;59.50;48.00;;;;;14.51;36.31;102654.28;5075688;28;44795;-58
2022/03/19 10:53:14;;;;;;;;;58.25;44.75;;;;;14.63;36.83;102659.16;5056113;28;45494;-59
2022/03/19 10:55:40;;;;;;;;;54.50;42.00;;;;;14.69;36.34;102648.19;5043217;28;45491;-59
2022/03/19 10:58:06;;;;;;;;;59.75;47.00;;;;;14.80;36.11;102657.59;5049390;28;45482;-57
2022/03/19 11:00:45;;;;;;;;;54.75;41.75;;;;;14.85;35.82;102645.78;5055655;28;45458;-57
2022/03/19 11:03:18;;;;;;;;;57.00;43.00;;;;;14.97;35.29;102641.69;5068706;28;45452;-58
2022/03/19 11:05:45;;;;;;;;;57.00;44.25;;;;;14.99;35.09;102646.06;5061316;28;45213;-59
2022/03/19 11:08:12;;;;;;;;;59.25;45.25;;;;;15.00;35.34;102636.22;5053500;28;45494;-59
2022/03/19 11:10:39;;;;;;;;;54.75;45.25;;;;;15.13;34.04;102653.53;5049601;28;45617;-63
2022/03/19 11:13:08;;;;;;;;;45.75;39.50;;;;;15.19;36.36;102647.03;5048655;28;46324;-57
2022/03/19 11:15:34;;;;;;;;;59.75;47.50;;;;;15.30;34.85;102628.69;5052484;28;45433;-62
2022/03/19 11:18:09;;;;;;;;;52.00;40.75;;;;;15.38;34.71;102642.63;5054888;28;45440;-52
2022/03/19 11:20:35;;;;;;;;;42.25;37.25;;;;;15.45;33.63;102619.94;5061746;28;45558;-59
2022/03/19 11:23:05;;;;;;;;;43.75;38.50;;;;;15.51;34.51;102621.50;5067189;28;46338;-60
2022/03/19 11:25:39;;;;;;;;;58.25;43.75;;;;;15.60;33.65;102623.78;5065448;28;45314;-58
2022/03/19 11:28:10;;;;;;;;;52.25;40.75;;;;;15.62;33.76;102629.97;5058066;28;45376;-60
2022/03/19 11:30:42;;;;;;;;;54.75;39.00;;;;;15.66;32.61;102619.97;5055166;28;45394;-59
2022/03/19 11:33:10;;;;;;;;;41.00;36.75;;;;;15.71;31.97;102618.81;5061311;28;45229;-61